sensor_id;sensor_type;location;lat;lon;timestamp;P1;durP1;ratioP1;P2;durP2;ratioP2
65545;SDS011;52177;55.968;37.498;2023-05-07T00:00:10;7.75;;;6.38;;
65545;SDS011;52177;55.968;37.498;2023-05-07T00:00:41;8.70;;;6.05;;
65545;SDS011;52177;55.968;37.498;2023-05-07T00:01:12;8.25;;;6.13;;
65545;SDS011;52177;55.968;37.498;2023-05-07T00:01:42;7.93;;;5.97;;
65545;SDS011;52177;55.968;37.498;2023-05-07T00:02:13;8.70;;;5.93;;
65545;SDS011;52177;55.968;37.498;2023-05-07T00:02:44;6.68;;;5.80;;
65545;SDS011;52177;55.968;37.498;2023-05-07T00:03:15;8.70;;;6.18;;
65545;SDS011;52177;55.968;37.498;2023-05-07T00:03:45;6.65;;;5.88;;
65545;SDS011;52177;55.968;37.498;2023-05-07T00:04:16;6.72;;;5.90;;
65545;SDS011;52177;55.968;37.498;2023-05-07T00:04:46;7.15;;;6.35;;
65545;SDS011;52177;55.968;37.498;2023-05-07T00:05:16;6.43;;;5.72;;
65545;SDS011;52177;55.968;37.498;2023-05-07T00:05:47;6.38;;;5.78;;
65545;SDS011;52177;55.968;37.498;2023-05-07T00:06:18;7.25;;;5.25;;
65545;SDS011;52177;55.968;37.498;2023-05-07T00:06:49;8.05;;;5.57;;
65545;SDS011;52177;55.968;37.498;2023-05-07T00:07:19;6.53;;;5.78;;
65545;SDS011;52177;55.968;37.498;2023-05-07T00:07:50;6.28;;;5.35;;
65545;SDS011;52177;55.968;37.498;2023-05-07T00:08:22;8.18;;;5.35;;
65545;SDS011;52177;55.968;37.498;2023-05-07T00:08:52;7.95;;;5.57;;
65545;SDS011;52177;55.968;37.498;2023-05-07T00:09:23;7.82;;;5.72;;
65545;SDS011;52177;55.968;37.498;2023-05-07T00:09:53;6.20;;;5.60;;
65545;SDS011;52177;55.968;37.498;2023-05-07T00:10:23;5.75;;;5.07;;
65545;SDS011;52177;55.968;37.498;2023-05-07T00:10:55;6.07;;;5.35;;
65545;SDS011;52177;55.968;37.498;2023-05-07T00:11:25;7.15;;;4.85;;
65545;SDS011;52177;55.968;37.498;2023-05-07T00:11:56;5.78;;;4.55;;
65545;SDS011;52177;55.968;37.498;2023-05-07T00:12:26;8.70;;;4.95;;
65545;SDS011;52177;55.968;37.498;2023-05-07T00:12:57;5.53;;;4.75;;
65545;SDS011;52177;55.968;37.498;2023-05-07T00:13:27;7.07;;;5.05;;
65545;SDS011;52177;55.968;37.498;2023-05-07T00:14:00;7.05;;;4.72;;
65545;SDS011;52177;55.968;37.498;2023-05-07T00:14:31;8.38;;;5.32;;
65545;SDS011;52177;55.968;37.498;2023-05-07T00:15:02;6.60;;;5.13;;
65545;SDS011;52177;55.968;37.498;2023-05-07T00:15:33;6.90;;;4.80;;
65545;SDS011;52177;55.968;37.498;2023-05-07T00:16:03;6.55;;;5.10;;
65545;SDS011;52177;55.968;37.498;2023-05-07T00:16:34;4.80;;;4.40;;
65545;SDS011;52177;55.968;37.498;2023-05-07T00:17:04;5.18;;;4.68;;
65545;SDS011;52177;55.968;37.498;2023-05-07T00:17:35;6.13;;;4.35;;
65545;SDS011;52177;55.968;37.498;2023-05-07T00:18:05;6.63;;;4.70;;
65545;SDS011;52177;55.968;37.498;2023-05-07T00:18:35;4.80;;;4.30;;
65545;SDS011;52177;55.968;37.498;2023-05-07T00:19:06;6.60;;;3.80;;
65545;SDS011;52177;55.968;37.498;2023-05-07T00:19:36;7.07;;;4.50;;
65545;SDS011;52177;55.968;37.498;2023-05-07T00:20:07;4.57;;;4.15;;
65545;SDS011;52177;55.968;37.498;2023-05-07T00:20:37;5.68;;;4.22;;
65545;SDS011;52177;55.968;37.498;2023-05-07T00:21:08;4.68;;;4.10;;
65545;SDS011;52177;55.968;37.498;2023-05-07T00:21:38;4.68;;;4.00;;
65545;SDS011;52177;55.968;37.498;2023-05-07T00:22:09;5.15;;;4.03;;
65545;SDS011;52177;55.968;37.498;2023-05-07T00:22:40;5.50;;;4.22;;
65545;SDS011;52177;55.968;37.498;2023-05-07T00:23:10;10.48;;;4.32;;
65545;SDS011;52177;55.968;37.498;2023-05-07T00:23:41;5.05;;;3.95;;
65545;SDS011;52177;55.968;37.498;2023-05-07T00:24:11;4.97;;;3.60;;
65545;SDS011;52177;55.968;37.498;2023-05-07T00:24:41;4.43;;;3.72;;
65545;SDS011;52177;55.968;37.498;2023-05-07T00:25:12;7.55;;;3.70;;
65545;SDS011;52177;55.968;37.498;2023-05-07T00:25:42;8.50;;;4.70;;
65545;SDS011;52177;55.968;37.498;2023-05-07T00:26:13;5.22;;;4.05;;
65545;SDS011;52177;55.968;37.498;2023-05-07T00:26:43;9.55;;;4.10;;
65545;SDS011;52177;55.968;37.498;2023-05-07T00:27:13;5.70;;;4.25;;
65545;SDS011;52177;55.968;37.498;2023-05-07T00:27:43;6.40;;;3.80;;
65545;SDS011;52177;55.968;37.498;2023-05-07T00:28:14;5.57;;;4.45;;
65545;SDS011;52177;55.968;37.498;2023-05-07T00:28:44;4.35;;;3.95;;
65545;SDS011;52177;55.968;37.498;2023-05-07T00:29:15;4.88;;;4.22;;
65545;SDS011;52177;55.968;37.498;2023-05-07T00:29:45;6.60;;;4.18;;
65545;SDS011;52177;55.968;37.498;2023-05-07T00:30:15;4.70;;;4.30;;
65545;SDS011;52177;55.968;37.498;2023-05-07T00:30:46;4.90;;;3.88;;
65545;SDS011;52177;55.968;37.498;2023-05-07T00:31:16;5.78;;;4.53;;
65545;SDS011;52177;55.968;37.498;2023-05-07T00:31:48;6.40;;;4.22;;
65545;SDS011;52177;55.968;37.498;2023-05-07T00:32:19;5.53;;;4.18;;
65545;SDS011;52177;55.968;37.498;2023-05-07T00:32:49;5.60;;;4.10;;
65545;SDS011;52177;55.968;37.498;2023-05-07T00:33:20;12.05;;;4.05;;
65545;SDS011;52177;55.968;37.498;2023-05-07T00:33:52;4.20;;;3.55;;
65545;SDS011;52177;55.968;37.498;2023-05-07T00:34:22;5.32;;;3.70;;
65545;SDS011;52177;55.968;37.498;2023-05-07T00:34:52;5.07;;;4.15;;
65545;SDS011;52177;55.968;37.498;2023-05-07T00:35:23;4.38;;;3.92;;
65545;SDS011;52177;55.968;37.498;2023-05-07T00:35:53;7.00;;;4.13;;
65545;SDS011;52177;55.968;37.498;2023-05-07T00:36:26;4.82;;;4.00;;
65545;SDS011;52177;55.968;37.498;2023-05-07T00:36:56;4.60;;;4.10;;
65545;SDS011;52177;55.968;37.498;2023-05-07T00:37:27;5.32;;;4.20;;
65545;SDS011;52177;55.968;37.498;2023-05-07T00:37:57;5.15;;;3.90;;
65545;SDS011;52177;55.968;37.498;2023-05-07T00:38:28;4.70;;;4.07;;
65545;SDS011;52177;55.968;37.498;2023-05-07T00:38:59;6.35;;;4.13;;
65545;SDS011;52177;55.968;37.498;2023-05-07T00:39:30;5.47;;;4.20;;
65545;SDS011;52177;55.968;37.498;2023-05-07T00:40:00;6.05;;;4.10;;
65545;SDS011;52177;55.968;37.498;2023-05-07T00:40:33;5.38;;;4.15;;
65545;SDS011;52177;55.968;37.498;2023-05-07T00:41:03;6.13;;;4.28;;
65545;SDS011;52177;55.968;37.498;2023-05-07T00:41:34;4.65;;;4.25;;
65545;SDS011;52177;55.968;37.498;2023-05-07T00:42:04;6.30;;;4.22;;
65545;SDS011;52177;55.968;37.498;2023-05-07T00:42:35;4.57;;;4.15;;
65545;SDS011;52177;55.968;37.498;2023-05-07T00:43:05;13.38;;;4.22;;
65545;SDS011;52177;55.968;37.498;2023-05-07T00:43:36;8.52;;;4.25;;
65545;SDS011;52177;55.968;37.498;2023-05-07T00:44:06;6.03;;;4.20;;
65545;SDS011;52177;55.968;37.498;2023-05-07T00:44:37;4.93;;;4.07;;
65545;SDS011;52177;55.968;37.498;2023-05-07T00:45:07;5.68;;;4.40;;
65545;SDS011;52177;55.968;37.498;2023-05-07T00:45:38;7.65;;;4.50;;
65545;SDS011;52177;55.968;37.498;2023-05-07T00:46:08;5.20;;;4.70;;
65545;SDS011;52177;55.968;37.498;2023-05-07T00:46:40;5.10;;;4.03;;
65545;SDS011;52177;55.968;37.498;2023-05-07T00:47:10;5.32;;;4.25;;
65545;SDS011;52177;55.968;37.498;2023-05-07T00:47:41;4.50;;;4.00;;
65545;SDS011;52177;55.968;37.498;2023-05-07T00:48:12;5.05;;;4.10;;
65545;SDS011;52177;55.968;37.498;2023-05-07T00:48:43;6.88;;;4.40;;
65545;SDS011;52177;55.968;37.498;2023-05-07T00:49:13;5.32;;;4.00;;
65545;SDS011;52177;55.968;37.498;2023-05-07T00:49:44;4.28;;;3.70;;
65545;SDS011;52177;55.968;37.498;2023-05-07T00:50:15;4.40;;;3.92;;
65545;SDS011;52177;55.968;37.498;2023-05-07T00:50:47;6.20;;;4.25;;
65545;SDS011;52177;55.968;37.498;2023-05-07T00:51:18;7.85;;;4.25;;
65545;SDS011;52177;55.968;37.498;2023-05-07T00:51:48;5.97;;;4.15;;
65545;SDS011;52177;55.968;37.498;2023-05-07T00:52:20;6.10;;;4.40;;
65545;SDS011;52177;55.968;37.498;2023-05-07T00:52:53;5.53;;;4.53;;
65545;SDS011;52177;55.968;37.498;2023-05-07T00:53:24;5.22;;;4.63;;
65545;SDS011;52177;55.968;37.498;2023-05-07T00:53:55;6.82;;;4.25;;
65545;SDS011;52177;55.968;37.498;2023-05-07T00:54:25;5.53;;;4.35;;
65545;SDS011;52177;55.968;37.498;2023-05-07T00:54:56;5.60;;;4.82;;
65545;SDS011;52177;55.968;37.498;2023-05-07T00:55:26;5.05;;;4.50;;
65545;SDS011;52177;55.968;37.498;2023-05-07T00:55:57;4.57;;;3.78;;
65545;SDS011;52177;55.968;37.498;2023-05-07T00:56:27;6.38;;;4.20;;
65545;SDS011;52177;55.968;37.498;2023-05-07T00:56:58;6.10;;;4.35;;
65545;SDS011;52177;55.968;37.498;2023-05-07T00:57:28;5.00;;;4.40;;
65545;SDS011;52177;55.968;37.498;2023-05-07T00:57:59;6.25;;;4.47;;
65545;SDS011;52177;55.968;37.498;2023-05-07T00:58:29;8.13;;;4.45;;
65545;SDS011;52177;55.968;37.498;2023-05-07T00:59:01;6.15;;;4.57;;
65545;SDS011;52177;55.968;37.498;2023-05-07T00:59:32;4.85;;;4.15;;
65545;SDS011;52177;55.968;37.498;2023-05-07T01:00:04;5.20;;;4.35;;
65545;SDS011;52177;55.968;37.498;2023-05-07T01:00:35;5.22;;;4.72;;
65545;SDS011;52177;55.968;37.498;2023-05-07T01:01:05;7.82;;;4.95;;
65545;SDS011;52177;55.968;37.498;2023-05-07T01:01:36;6.45;;;4.82;;
65545;SDS011;52177;55.968;37.498;2023-05-07T01:02:06;6.70;;;4.57;;
65545;SDS011;52177;55.968;37.498;2023-05-07T01:02:40;9.55;;;5.35;;
65545;SDS011;52177;55.968;37.498;2023-05-07T01:03:12;6.03;;;4.43;;
65545;SDS011;52177;55.968;37.498;2023-05-07T01:03:42;5.60;;;4.72;;
65545;SDS011;52177;55.968;37.498;2023-05-07T01:04:13;7.18;;;5.05;;
65545;SDS011;52177;55.968;37.498;2023-05-07T01:04:43;6.00;;;4.38;;
65545;SDS011;52177;55.968;37.498;2023-05-07T01:05:14;5.97;;;4.57;;
65545;SDS011;52177;55.968;37.498;2023-05-07T01:05:46;6.25;;;4.95;;
65545;SDS011;52177;55.968;37.498;2023-05-07T01:06:19;10.00;;;4.95;;
65545;SDS011;52177;55.968;37.498;2023-05-07T01:06:53;8.57;;;5.03;;
65545;SDS011;52177;55.968;37.498;2023-05-07T01:07:26;5.50;;;4.95;;
65545;SDS011;52177;55.968;37.498;2023-05-07T01:07:57;9.88;;;5.32;;
65545;SDS011;52177;55.968;37.498;2023-05-07T01:08:28;6.15;;;5.55;;
65545;SDS011;52177;55.968;37.498;2023-05-07T01:08:59;5.50;;;4.82;;
65545;SDS011;52177;55.968;37.498;2023-05-07T01:09:30;6.53;;;5.22;;
65545;SDS011;52177;55.968;37.498;2023-05-07T01:10:01;6.82;;;5.10;;
65545;SDS011;52177;55.968;37.498;2023-05-07T01:10:33;5.50;;;4.90;;
65545;SDS011;52177;55.968;37.498;2023-05-07T01:11:04;6.10;;;5.10;;
65545;SDS011;52177;55.968;37.498;2023-05-07T01:11:34;7.45;;;5.65;;
65545;SDS011;52177;55.968;37.498;2023-05-07T01:12:05;8.13;;;5.13;;
65545;SDS011;52177;55.968;37.498;2023-05-07T01:12:37;6.95;;;5.63;;
65545;SDS011;52177;55.968;37.498;2023-05-07T01:13:12;11.82;;;6.22;;
65545;SDS011;52177;55.968;37.498;2023-05-07T01:13:44;6.47;;;5.20;;
65545;SDS011;52177;55.968;37.498;2023-05-07T01:14:14;7.13;;;5.15;;
65545;SDS011;52177;55.968;37.498;2023-05-07T01:14:45;6.28;;;5.53;;
65545;SDS011;52177;55.968;37.498;2023-05-07T01:15:16;8.40;;;5.40;;
65545;SDS011;52177;55.968;37.498;2023-05-07T01:15:47;6.18;;;5.22;;
65545;SDS011;52177;55.968;37.498;2023-05-07T01:16:17;8.73;;;5.47;;
65545;SDS011;52177;55.968;37.498;2023-05-07T01:16:48;8.13;;;5.30;;
65545;SDS011;52177;55.968;37.498;2023-05-07T01:17:20;6.43;;;5.60;;
65545;SDS011;52177;55.968;37.498;2023-05-07T01:17:51;8.48;;;5.50;;
65545;SDS011;52177;55.968;37.498;2023-05-07T01:18:21;6.82;;;5.40;;
65545;SDS011;52177;55.968;37.498;2023-05-07T01:18:52;7.00;;;5.40;;
65545;SDS011;52177;55.968;37.498;2023-05-07T01:19:22;12.77;;;5.38;;
65545;SDS011;52177;55.968;37.498;2023-05-07T01:19:53;5.35;;;4.30;;
65545;SDS011;52177;55.968;37.498;2023-05-07T01:20:23;8.23;;;5.05;;
65545;SDS011;52177;55.968;37.498;2023-05-07T01:20:54;5.72;;;4.63;;
65545;SDS011;52177;55.968;37.498;2023-05-07T01:21:28;7.03;;;5.07;;
65545;SDS011;52177;55.968;37.498;2023-05-07T01:22:07;6.82;;;4.70;;
65545;SDS011;52177;55.968;37.498;2023-05-07T01:22:39;7.07;;;4.95;;
65545;SDS011;52177;55.968;37.498;2023-05-07T01:23:10;6.70;;;4.78;;
65545;SDS011;52177;55.968;37.498;2023-05-07T01:23:41;6.57;;;5.13;;
65545;SDS011;52177;55.968;37.498;2023-05-07T01:24:12;8.48;;;5.35;;
65545;SDS011;52177;55.968;37.498;2023-05-07T01:24:42;7.60;;;5.00;;
65545;SDS011;52177;55.968;37.498;2023-05-07T01:25:13;7.75;;;4.90;;
65545;SDS011;52177;55.968;37.498;2023-05-07T01:25:50;8.95;;;4.93;;
65545;SDS011;52177;55.968;37.498;2023-05-07T01:26:21;8.27;;;4.80;;
65545;SDS011;52177;55.968;37.498;2023-05-07T01:26:53;9.15;;;5.00;;
65545;SDS011;52177;55.968;37.498;2023-05-07T01:27:24;6.88;;;4.93;;
65545;SDS011;52177;55.968;37.498;2023-05-07T01:27:54;6.38;;;4.53;;
65545;SDS011;52177;55.968;37.498;2023-05-07T01:28:25;11.68;;;5.32;;
65545;SDS011;52177;55.968;37.498;2023-05-07T01:28:55;4.93;;;4.43;;
65545;SDS011;52177;55.968;37.498;2023-05-07T01:29:26;7.85;;;5.03;;
65545;SDS011;52177;55.968;37.498;2023-05-07T01:29:56;5.30;;;4.53;;
65545;SDS011;52177;55.968;37.498;2023-05-07T01:30:26;9.48;;;4.95;;
65545;SDS011;52177;55.968;37.498;2023-05-07T01:31:00;5.82;;;4.80;;
65545;SDS011;52177;55.968;37.498;2023-05-07T01:31:32;6.25;;;4.82;;
65545;SDS011;52177;55.968;37.498;2023-05-07T01:32:04;8.18;;;4.60;;
65545;SDS011;52177;55.968;37.498;2023-05-07T01:32:37;8.23;;;4.68;;
65545;SDS011;52177;55.968;37.498;2023-05-07T01:33:13;7.70;;;4.70;;
65545;SDS011;52177;55.968;37.498;2023-05-07T01:33:48;5.15;;;4.30;;
65545;SDS011;52177;55.968;37.498;2023-05-07T01:34:21;6.97;;;5.10;;
65545;SDS011;52177;55.968;37.498;2023-05-07T01:34:52;5.97;;;4.70;;
65545;SDS011;52177;55.968;37.498;2023-05-07T01:35:26;8.05;;;4.70;;
65545;SDS011;52177;55.968;37.498;2023-05-07T01:35:59;6.50;;;4.82;;
65545;SDS011;52177;55.968;37.498;2023-05-07T01:36:32;7.22;;;4.85;;
65545;SDS011;52177;55.968;37.498;2023-05-07T01:37:02;5.07;;;4.05;;
65545;SDS011;52177;55.968;37.498;2023-05-07T01:37:33;7.05;;;4.82;;
65545;SDS011;52177;55.968;37.498;2023-05-07T01:38:04;4.72;;;3.90;;
65545;SDS011;52177;55.968;37.498;2023-05-07T01:38:36;6.10;;;4.13;;
65545;SDS011;52177;55.968;37.498;2023-05-07T01:39:08;5.25;;;4.53;;
65545;SDS011;52177;55.968;37.498;2023-05-07T01:39:39;6.57;;;4.38;;
65545;SDS011;52177;55.968;37.498;2023-05-07T01:40:10;5.55;;;4.85;;
65545;SDS011;52177;55.968;37.498;2023-05-07T01:40:41;7.50;;;4.70;;
65545;SDS011;52177;55.968;37.498;2023-05-07T01:41:12;7.35;;;4.57;;
65545;SDS011;52177;55.968;37.498;2023-05-07T01:41:43;5.82;;;4.35;;
65545;SDS011;52177;55.968;37.498;2023-05-07T01:42:13;7.07;;;4.55;;
65545;SDS011;52177;55.968;37.498;2023-05-07T01:42:43;7.63;;;4.60;;
65545;SDS011;52177;55.968;37.498;2023-05-07T01:43:14;4.95;;;4.45;;
65545;SDS011;52177;55.968;37.498;2023-05-07T01:43:44;7.68;;;4.65;;
65545;SDS011;52177;55.968;37.498;2023-05-07T01:44:16;10.38;;;4.97;;
65545;SDS011;52177;55.968;37.498;2023-05-07T01:44:48;7.38;;;4.45;;
65545;SDS011;52177;55.968;37.498;2023-05-07T01:45:18;7.43;;;4.63;;
65545;SDS011;52177;55.968;37.498;2023-05-07T01:45:49;5.28;;;4.28;;
65545;SDS011;52177;55.968;37.498;2023-05-07T01:46:20;5.18;;;4.22;;
65545;SDS011;52177;55.968;37.498;2023-05-07T01:46:51;5.78;;;4.70;;
65545;SDS011;52177;55.968;37.498;2023-05-07T01:47:22;5.00;;;4.50;;
65545;SDS011;52177;55.968;37.498;2023-05-07T01:47:53;5.32;;;4.50;;
65545;SDS011;52177;55.968;37.498;2023-05-07T01:48:25;4.78;;;4.35;;
65545;SDS011;52177;55.968;37.498;2023-05-07T01:48:56;4.85;;;4.32;;
65545;SDS011;52177;55.968;37.498;2023-05-07T01:49:26;5.43;;;4.50;;
65545;SDS011;52177;55.968;37.498;2023-05-07T01:49:56;5.18;;;4.68;;
65545;SDS011;52177;55.968;37.498;2023-05-07T01:50:28;8.23;;;4.50;;
65545;SDS011;52177;55.968;37.498;2023-05-07T01:50:59;5.18;;;4.68;;
65545;SDS011;52177;55.968;37.498;2023-05-07T01:51:31;7.53;;;4.70;;
65545;SDS011;52177;55.968;37.498;2023-05-07T01:52:02;5.45;;;4.88;;
65545;SDS011;52177;55.968;37.498;2023-05-07T01:52:33;7.95;;;4.85;;
65545;SDS011;52177;55.968;37.498;2023-05-07T01:53:04;6.38;;;4.50;;
65545;SDS011;52177;55.968;37.498;2023-05-07T01:53:35;5.90;;;4.85;;
65545;SDS011;52177;55.968;37.498;2023-05-07T01:54:06;7.55;;;5.20;;
65545;SDS011;52177;55.968;37.498;2023-05-07T01:54:38;5.38;;;4.80;;
65545;SDS011;52177;55.968;37.498;2023-05-07T01:55:08;6.55;;;4.55;;
65545;SDS011;52177;55.968;37.498;2023-05-07T01:55:39;5.65;;;4.38;;
65545;SDS011;52177;55.968;37.498;2023-05-07T01:56:10;6.15;;;4.60;;
65545;SDS011;52177;55.968;37.498;2023-05-07T01:56:40;5.53;;;4.40;;
65545;SDS011;52177;55.968;37.498;2023-05-07T01:57:10;7.65;;;4.38;;
65545;SDS011;52177;55.968;37.498;2023-05-07T01:57:41;6.88;;;4.95;;
65545;SDS011;52177;55.968;37.498;2023-05-07T01:58:11;6.85;;;4.72;;
65545;SDS011;52177;55.968;37.498;2023-05-07T01:58:42;5.70;;;4.20;;
65545;SDS011;52177;55.968;37.498;2023-05-07T01:59:12;5.25;;;4.40;;
65545;SDS011;52177;55.968;37.498;2023-05-07T01:59:43;6.00;;;4.40;;
65545;SDS011;52177;55.968;37.498;2023-05-07T02:00:14;6.20;;;4.60;;
65545;SDS011;52177;55.968;37.498;2023-05-07T02:00:44;5.28;;;4.60;;
65545;SDS011;52177;55.968;37.498;2023-05-07T02:01:15;5.65;;;4.80;;
65545;SDS011;52177;55.968;37.498;2023-05-07T02:01:45;6.50;;;4.90;;
65545;SDS011;52177;55.968;37.498;2023-05-07T02:02:15;5.85;;;4.68;;
65545;SDS011;52177;55.968;37.498;2023-05-07T02:02:45;6.75;;;4.63;;
65545;SDS011;52177;55.968;37.498;2023-05-07T02:03:16;5.25;;;4.53;;
65545;SDS011;52177;55.968;37.498;2023-05-07T02:03:46;6.50;;;4.53;;
65545;SDS011;52177;55.968;37.498;2023-05-07T02:04:17;8.68;;;5.03;;
65545;SDS011;52177;55.968;37.498;2023-05-07T02:04:47;7.13;;;5.25;;
65545;SDS011;52177;55.968;37.498;2023-05-07T02:05:18;5.10;;;4.40;;
65545;SDS011;52177;55.968;37.498;2023-05-07T02:05:48;5.75;;;4.80;;
65545;SDS011;52177;55.968;37.498;2023-05-07T02:06:19;8.68;;;4.80;;
65545;SDS011;52177;55.968;37.498;2023-05-07T02:06:49;6.53;;;4.70;;
65545;SDS011;52177;55.968;37.498;2023-05-07T02:07:20;6.03;;;4.70;;
65545;SDS011;52177;55.968;37.498;2023-05-07T02:07:50;5.75;;;5.00;;
65545;SDS011;52177;55.968;37.498;2023-05-07T02:08:20;7.65;;;4.70;;
65545;SDS011;52177;55.968;37.498;2023-05-07T02:08:51;6.43;;;4.63;;
65545;SDS011;52177;55.968;37.498;2023-05-07T02:09:21;6.30;;;5.13;;
65545;SDS011;52177;55.968;37.498;2023-05-07T02:09:53;5.40;;;4.72;;
65545;SDS011;52177;55.968;37.498;2023-05-07T02:10:25;6.95;;;4.15;;
65545;SDS011;52177;55.968;37.498;2023-05-07T02:10:55;6.30;;;4.43;;
65545;SDS011;52177;55.968;37.498;2023-05-07T02:11:25;4.55;;;4.15;;
65545;SDS011;52177;55.968;37.498;2023-05-07T02:11:56;6.35;;;4.65;;
65545;SDS011;52177;55.968;37.498;2023-05-07T02:12:26;8.43;;;5.10;;
65545;SDS011;52177;55.968;37.498;2023-05-07T02:12:57;6.68;;;4.70;;
65545;SDS011;52177;55.968;37.498;2023-05-07T02:13:31;5.88;;;4.55;;
65545;SDS011;52177;55.968;37.498;2023-05-07T02:14:03;5.65;;;4.40;;
65545;SDS011;52177;55.968;37.498;2023-05-07T02:14:33;5.75;;;4.72;;
65545;SDS011;52177;55.968;37.498;2023-05-07T02:15:03;6.88;;;4.47;;
65545;SDS011;52177;55.968;37.498;2023-05-07T02:15:34;5.22;;;4.72;;
65545;SDS011;52177;55.968;37.498;2023-05-07T02:16:04;5.15;;;4.50;;
65545;SDS011;52177;55.968;37.498;2023-05-07T02:16:35;5.55;;;4.70;;
65545;SDS011;52177;55.968;37.498;2023-05-07T02:17:06;5.43;;;4.68;;
65545;SDS011;52177;55.968;37.498;2023-05-07T02:17:39;6.85;;;4.57;;
65545;SDS011;52177;55.968;37.498;2023-05-07T02:18:27;9.95;;;4.72;;
65545;SDS011;52177;55.968;37.498;2023-05-07T02:18:57;5.32;;;4.53;;
65545;SDS011;52177;55.968;37.498;2023-05-07T02:19:28;5.50;;;4.50;;
65545;SDS011;52177;55.968;37.498;2023-05-07T02:19:58;6.75;;;4.10;;
65545;SDS011;52177;55.968;37.498;2023-05-07T02:20:29;7.22;;;4.57;;
65545;SDS011;52177;55.968;37.498;2023-05-07T02:21:00;7.47;;;4.80;;
65545;SDS011;52177;55.968;37.498;2023-05-07T02:21:30;5.05;;;4.50;;
65545;SDS011;52177;55.968;37.498;2023-05-07T02:22:00;5.50;;;4.65;;
65545;SDS011;52177;55.968;37.498;2023-05-07T02:22:31;5.95;;;4.68;;
65545;SDS011;52177;55.968;37.498;2023-05-07T02:23:01;6.00;;;4.50;;
65545;SDS011;52177;55.968;37.498;2023-05-07T02:23:31;6.75;;;4.68;;
65545;SDS011;52177;55.968;37.498;2023-05-07T02:24:02;7.53;;;5.00;;
65545;SDS011;52177;55.968;37.498;2023-05-07T02:24:32;5.32;;;4.30;;
65545;SDS011;52177;55.968;37.498;2023-05-07T02:25:03;6.03;;;4.57;;
65545;SDS011;52177;55.968;37.498;2023-05-07T02:25:33;6.32;;;4.72;;
65545;SDS011;52177;55.968;37.498;2023-05-07T02:26:04;6.10;;;4.90;;
65545;SDS011;52177;55.968;37.498;2023-05-07T02:26:34;10.10;;;5.10;;
65545;SDS011;52177;55.968;37.498;2023-05-07T02:27:05;7.05;;;5.13;;
65545;SDS011;52177;55.968;37.498;2023-05-07T02:27:35;6.63;;;4.55;;
65545;SDS011;52177;55.968;37.498;2023-05-07T02:28:05;5.45;;;4.95;;
65545;SDS011;52177;55.968;37.498;2023-05-07T02:28:36;8.30;;;4.82;;
65545;SDS011;52177;55.968;37.498;2023-05-07T02:29:06;7.68;;;4.82;;
65545;SDS011;52177;55.968;37.498;2023-05-07T02:29:36;7.22;;;4.68;;
65545;SDS011;52177;55.968;37.498;2023-05-07T02:30:07;5.22;;;4.72;;
65545;SDS011;52177;55.968;37.498;2023-05-07T02:30:38;7.82;;;5.10;;
65545;SDS011;52177;55.968;37.498;2023-05-07T02:31:08;5.03;;;4.53;;
65545;SDS011;52177;55.968;37.498;2023-05-07T02:31:38;7.63;;;4.85;;
65545;SDS011;52177;55.968;37.498;2023-05-07T02:32:09;5.97;;;4.53;;
65545;SDS011;52177;55.968;37.498;2023-05-07T02:32:39;5.38;;;4.88;;
65545;SDS011;52177;55.968;37.498;2023-05-07T02:33:09;7.45;;;5.38;;
65545;SDS011;52177;55.968;37.498;2023-05-07T02:33:42;9.38;;;5.30;;
65545;SDS011;52177;55.968;37.498;2023-05-07T02:34:12;6.60;;;5.13;;
65545;SDS011;52177;55.968;37.498;2023-05-07T02:34:43;5.97;;;5.30;;
65545;SDS011;52177;55.968;37.498;2023-05-07T02:35:13;6.40;;;5.10;;
65545;SDS011;52177;55.968;37.498;2023-05-07T02:35:44;9.10;;;5.72;;
65545;SDS011;52177;55.968;37.498;2023-05-07T02:36:14;6.93;;;4.78;;
65545;SDS011;52177;55.968;37.498;2023-05-07T02:36:45;5.70;;;5.10;;
65545;SDS011;52177;55.968;37.498;2023-05-07T02:37:15;6.68;;;5.72;;
65545;SDS011;52177;55.968;37.498;2023-05-07T02:37:46;6.25;;;5.47;;
65545;SDS011;52177;55.968;37.498;2023-05-07T02:38:16;10.30;;;5.55;;
65545;SDS011;52177;55.968;37.498;2023-05-07T02:38:46;9.10;;;4.80;;
65545;SDS011;52177;55.968;37.498;2023-05-07T02:39:17;8.27;;;4.40;;
65545;SDS011;52177;55.968;37.498;2023-05-07T02:39:47;7.97;;;5.20;;
65545;SDS011;52177;55.968;37.498;2023-05-07T02:40:17;7.78;;;5.05;;
65545;SDS011;52177;55.968;37.498;2023-05-07T02:40:48;12.65;;;5.35;;
65545;SDS011;52177;55.968;37.498;2023-05-07T02:41:18;10.05;;;4.78;;
65545;SDS011;52177;55.968;37.498;2023-05-07T02:41:49;9.15;;;5.47;;
65545;SDS011;52177;55.968;37.498;2023-05-07T02:42:19;7.07;;;4.63;;
65545;SDS011;52177;55.968;37.498;2023-05-07T02:42:49;12.77;;;4.88;;
65545;SDS011;52177;55.968;37.498;2023-05-07T02:43:19;8.48;;;5.10;;
65545;SDS011;52177;55.968;37.498;2023-05-07T02:43:50;7.38;;;4.70;;
65545;SDS011;52177;55.968;37.498;2023-05-07T02:44:20;6.05;;;4.70;;
65545;SDS011;52177;55.968;37.498;2023-05-07T02:44:50;10.93;;;4.78;;
65545;SDS011;52177;55.968;37.498;2023-05-07T02:45:21;9.13;;;4.60;;
65545;SDS011;52177;55.968;37.498;2023-05-07T02:46:03;6.65;;;4.45;;
65545;SDS011;52177;55.968;37.498;2023-05-07T02:46:38;6.35;;;4.22;;
65545;SDS011;52177;55.968;37.498;2023-05-07T02:47:08;9.40;;;5.18;;
65545;SDS011;52177;55.968;37.498;2023-05-07T02:47:40;7.20;;;4.65;;
65545;SDS011;52177;55.968;37.498;2023-05-07T02:48:10;8.10;;;5.28;;
65545;SDS011;52177;55.968;37.498;2023-05-07T02:48:40;5.35;;;4.43;;
65545;SDS011;52177;55.968;37.498;2023-05-07T02:49:11;5.13;;;4.40;;
65545;SDS011;52177;55.968;37.498;2023-05-07T02:49:41;6.03;;;4.72;;
65545;SDS011;52177;55.968;37.498;2023-05-07T02:50:11;6.82;;;5.10;;
65545;SDS011;52177;55.968;37.498;2023-05-07T02:50:42;6.22;;;4.93;;
65545;SDS011;52177;55.968;37.498;2023-05-07T02:51:12;8.02;;;5.38;;
65545;SDS011;52177;55.968;37.498;2023-05-07T02:51:44;8.93;;;4.80;;
65545;SDS011;52177;55.968;37.498;2023-05-07T02:52:14;5.82;;;5.15;;
65545;SDS011;52177;55.968;37.498;2023-05-07T02:52:45;6.13;;;4.38;;
65545;SDS011;52177;55.968;37.498;2023-05-07T02:53:15;5.90;;;4.82;;
65545;SDS011;52177;55.968;37.498;2023-05-07T02:53:45;6.38;;;4.70;;
65545;SDS011;52177;55.968;37.498;2023-05-07T02:54:16;5.68;;;5.05;;
65545;SDS011;52177;55.968;37.498;2023-05-07T02:54:47;5.70;;;5.07;;
65545;SDS011;52177;55.968;37.498;2023-05-07T02:55:18;5.40;;;4.85;;
65545;SDS011;52177;55.968;37.498;2023-05-07T02:55:48;8.20;;;4.93;;
65545;SDS011;52177;55.968;37.498;2023-05-07T02:56:18;7.68;;;5.00;;
65545;SDS011;52177;55.968;37.498;2023-05-07T02:56:49;8.00;;;5.75;;
65545;SDS011;52177;55.968;37.498;2023-05-07T02:57:20;5.93;;;4.82;;
65545;SDS011;52177;55.968;37.498;2023-05-07T02:57:50;5.45;;;4.75;;
65545;SDS011;52177;55.968;37.498;2023-05-07T02:58:20;6.25;;;4.68;;
65545;SDS011;52177;55.968;37.498;2023-05-07T02:58:51;6.22;;;4.85;;
65545;SDS011;52177;55.968;37.498;2023-05-07T02:59:21;6.22;;;5.20;;
65545;SDS011;52177;55.968;37.498;2023-05-07T02:59:51;5.93;;;5.10;;
65545;SDS011;52177;55.968;37.498;2023-05-07T03:00:22;8.85;;;4.78;;
65545;SDS011;52177;55.968;37.498;2023-05-07T03:00:53;7.75;;;5.03;;
65545;SDS011;52177;55.968;37.498;2023-05-07T03:01:27;7.65;;;5.00;;
65545;SDS011;52177;55.968;37.498;2023-05-07T03:01:57;6.60;;;4.90;;
65545;SDS011;52177;55.968;37.498;2023-05-07T03:02:27;5.88;;;5.28;;
65545;SDS011;52177;55.968;37.498;2023-05-07T03:02:58;5.65;;;4.47;;
65545;SDS011;52177;55.968;37.498;2023-05-07T03:03:28;6.97;;;4.93;;